createdAt,value
2022-08-14T00:00:11.485Z,20.97
2022-08-14T00:03:06.070Z,20.92
2022-08-14T00:05:38.908Z,20.88
2022-08-14T00:08:16.777Z,20.87
2022-08-14T00:11:08.622Z,20.82
2022-08-14T00:13:40.458Z,20.79
2022-08-14T00:16:41.119Z,20.77
2022-08-14T00:19:19.605Z,20.72
2022-08-14T00:21:54.164Z,20.69
2022-08-14T00:24:30.865Z,20.66
2022-08-14T00:27:02.955Z,20.64
2022-08-14T00:29:40.508Z,20.61
2022-08-14T00:32:52.369Z,20.55
2022-08-14T00:35:06.425Z,20.50
2022-08-14T00:37:44.083Z,20.48
2022-08-14T00:40:27.487Z,20.46
2022-08-14T00:43:06.131Z,20.43
2022-08-14T00:45:38.616Z,20.41
2022-08-14T00:48:13.555Z,20.36
2022-08-14T00:51:05.939Z,20.32
2022-08-14T00:53:42.931Z,20.30
2022-08-14T00:56:15.827Z,20.28
2022-08-14T00:58:48.527Z,20.24
2022-08-14T01:01:21.132Z,20.20
2022-08-14T01:03:55.639Z,20.19
2022-08-14T01:06:30.323Z,20.18
2022-08-14T01:09:07.090Z,20.15
2022-08-14T01:11:41.001Z,20.14
2022-08-14T01:14:29.022Z,20.10
2022-08-14T01:17:01.128Z,20.07
2022-08-14T01:19:53.771Z,20.06
2022-08-14T01:22:26.873Z,20.04
2022-08-14T01:24:59.230Z,20.02
2022-08-14T01:27:31.130Z,19.98
2022-08-14T01:30:21.051Z,19.96
2022-08-14T01:32:54.396Z,19.91
2022-08-14T01:36:03.545Z,19.88
2022-08-14T01:38:20.397Z,19.85
2022-08-14T01:40:54.355Z,19.81
2022-08-14T01:43:30.656Z,19.80
2022-08-14T01:46:11.648Z,19.75
2022-08-14T01:48:57.419Z,19.74
2022-08-14T01:51:32.695Z,19.70
2022-08-14T01:54:09.566Z,19.68
2022-08-14T01:56:42.982Z,19.66
2022-08-14T01:59:26.811Z,19.63
2022-08-14T02:02:18.996Z,19.59
2022-08-14T02:04:55.495Z,19.54
2022-08-14T02:07:44.784Z,19.51
2022-08-14T02:10:26.057Z,19.48
2022-08-14T02:12:59.701Z,19.42
2022-08-14T02:15:32.337Z,19.40
2022-08-14T02:18:04.466Z,19.38
2022-08-14T02:20:36.546Z,19.35
2022-08-14T02:23:08.661Z,19.32
2022-08-14T02:25:40.961Z,19.26
2022-08-14T02:28:23.241Z,19.24
2022-08-14T02:31:08.800Z,19.19
2022-08-14T02:33:41.896Z,19.16
2022-08-14T02:37:02.960Z,19.12
2022-08-14T02:39:08.416Z,19.08
2022-08-14T02:41:44.946Z,19.03
2022-08-14T02:44:29.581Z,18.99
2022-08-14T02:47:02.437Z,18.96
2022-08-14T02:49:35.048Z,18.95
2022-08-14T02:52:26.785Z,18.92
2022-08-14T02:55:02.538Z,18.90
2022-08-14T02:57:40.088Z,18.90
2022-08-14T03:00:18.860Z,18.89
2022-08-14T03:02:59.163Z,18.89
2022-08-14T03:05:36.143Z,18.87
2022-08-14T03:08:15.198Z,18.88
2022-08-14T03:10:50.148Z,18.86
2022-08-14T03:13:22.411Z,18.85
2022-08-14T03:15:57.894Z,18.87
2022-08-14T03:18:32.605Z,18.87
2022-08-14T03:21:13.541Z,18.88
2022-08-14T03:23:47.005Z,18.89
2022-08-14T03:26:30.134Z,18.89
2022-08-14T03:29:03.414Z,18.86
2022-08-14T03:31:36.481Z,18.84
2022-08-14T03:34:24.805Z,18.86
2022-08-14T03:37:38.964Z,18.87
2022-08-14T03:39:58.784Z,18.86
2022-08-14T03:42:39.753Z,18.86
2022-08-14T03:45:19.081Z,18.87
2022-08-14T03:48:11.095Z,18.88
2022-08-14T03:50:57.153Z,18.89
2022-08-14T03:53:34.263Z,18.89
2022-08-14T03:56:08.042Z,18.89
2022-08-14T03:58:45.351Z,18.89
2022-08-14T04:01:19.580Z,18.89
2022-08-14T04:03:54.823Z,18.88
2022-08-14T04:06:28.294Z,18.88
2022-08-14T04:09:03.757Z,18.91
2022-08-14T04:11:36.131Z,18.93
2022-08-14T04:14:10.644Z,18.95
2022-08-14T04:16:48.720Z,18.98
2022-08-14T04:19:24.178Z,19.00
2022-08-14T04:22:02.282Z,19.06
2022-08-14T04:24:38.325Z,19.10
2022-08-14T04:27:11.931Z,19.16
2022-08-14T04:29:45.318Z,19.23
2022-08-14T04:33:01.460Z,19.28
2022-08-14T04:35:11.817Z,19.34
2022-08-14T04:38:07.703Z,19.39
2022-08-14T04:41:17.475Z,19.43
2022-08-14T04:43:49.263Z,19.46
2022-08-14T04:46:56.762Z,19.51
2022-08-14T04:49:16.199Z,19.57
2022-08-14T04:51:55.482Z,19.64
2022-08-14T04:54:28.760Z,19.69
2022-08-14T04:57:00.579Z,19.75
2022-08-14T04:59:32.497Z,19.80
2022-08-14T05:02:04.874Z,19.85
2022-08-14T05:04:39.846Z,19.88
2022-08-14T05:07:17.260Z,19.91
2022-08-14T05:09:49.952Z,19.90
2022-08-14T05:13:10.702Z,19.89
2022-08-14T05:15:16.512Z,19.90
2022-08-14T05:17:58.650Z,19.92
2022-08-14T05:22:00.078Z,19.96
2022-08-14T05:23:37.985Z,19.98
2022-08-14T05:26:15.979Z,19.99
2022-08-14T05:28:50.009Z,20.03
2022-08-14T05:31:24.318Z,20.05
2022-08-14T05:34:11.824Z,20.07
2022-08-14T05:36:50.765Z,20.10
2022-08-14T05:39:34.388Z,20.14
2022-08-14T05:42:09.799Z,20.19
2022-08-14T05:44:54.756Z,20.25
2022-08-14T05:47:29.061Z,20.28
2022-08-14T05:50:18.914Z,20.39
2022-08-14T05:52:52.738Z,20.49
2022-08-14T05:55:26.036Z,20.57
2022-08-14T05:57:59.967Z,20.66
2022-08-14T06:00:38.588Z,20.75
2022-08-14T06:03:16.619Z,20.87
2022-08-14T06:05:52.828Z,21.01
2022-08-14T06:08:36.180Z,21.12
2022-08-14T06:11:14.890Z,21.28
2022-08-14T06:13:52.567Z,21.42
2022-08-14T06:16:27.489Z,21.54
2022-08-14T06:19:01.088Z,21.62
2022-08-14T06:21:40.497Z,21.68
2022-08-14T06:24:18.868Z,21.76
2022-08-14T06:26:54.132Z,21.82
2022-08-14T06:29:36.426Z,21.90
2022-08-14T06:32:38.175Z,21.93
2022-08-14T06:35:12.690Z,21.96
2022-08-14T06:37:48.906Z,21.99
2022-08-14T06:40:26.665Z,22.02
2022-08-14T06:43:03.527Z,22.09
2022-08-14T06:45:42.066Z,22.19
2022-08-14T06:48:23.421Z,22.33
2022-08-14T06:50:57.901Z,22.50
2022-08-14T06:53:29.992Z,22.62
2022-08-14T06:56:02.593Z,22.74
2022-08-14T06:58:36.183Z,22.85
2022-08-14T07:01:28.119Z,22.94
2022-08-14T07:04:23.803Z,23.04
2022-08-14T07:06:59.077Z,23.15
2022-08-14T07:09:44.080Z,23.23
2022-08-14T07:12:52.231Z,23.32
2022-08-14T07:15:18.210Z,23.41
2022-08-14T07:17:52.540Z,23.49
2022-08-14T07:20:30.930Z,23.58
2022-08-14T07:23:09.411Z,23.67
2022-08-14T07:25:53.498Z,23.76
2022-08-14T07:28:27.955Z,23.83
2022-08-14T07:31:04.985Z,23.90
2022-08-14T07:33:41.914Z,23.96
2022-08-14T07:36:26.942Z,24.08
2022-08-14T07:39:13.277Z,24.17
2022-08-14T07:41:48.143Z,24.26
2022-08-14T07:44:29.489Z,24.34
2022-08-14T07:47:05.459Z,24.41
2022-08-14T07:49:37.481Z,24.49
2022-08-14T07:52:09.566Z,24.56
2022-08-14T07:54:43.878Z,24.65
2022-08-14T07:57:22.327Z,24.74
2022-08-14T07:59:57.425Z,24.80
2022-08-14T08:02:32.785Z,24.87
2022-08-14T08:05:08.127Z,24.92
2022-08-14T08:07:44.380Z,24.99
2022-08-14T08:11:02.019Z,25.04
2022-08-14T08:13:24.678Z,25.11
2022-08-14T08:16:03.194Z,25.12
2022-08-14T08:18:36.156Z,25.14
2022-08-14T08:21:09.395Z,25.19
2022-08-14T08:23:51.410Z,25.27
2022-08-14T08:26:29.818Z,25.35
2022-08-14T08:29:02.177Z,25.43
2022-08-14T08:31:36.605Z,25.49
2022-08-14T08:34:14.115Z,25.53
2022-08-14T08:36:50.865Z,25.56
2022-08-14T08:39:24.978Z,25.61
2022-08-14T08:42:04.223Z,25.65
2022-08-14T08:44:36.226Z,25.71
2022-08-14T08:47:09.095Z,25.77
2022-08-14T08:49:52.590Z,25.86
2022-08-14T08:52:32.340Z,25.95
2022-08-14T08:55:05.269Z,26.04
2022-08-14T08:57:38.426Z,26.12
2022-08-14T09:00:25.493Z,26.20
2022-08-14T09:03:06.839Z,26.25
2022-08-14T09:05:54.194Z,26.27
2022-08-14T09:08:31.363Z,26.30
2022-08-14T09:11:19.347Z,26.33
2022-08-14T09:13:56.472Z,26.37
2022-08-14T09:16:29.962Z,26.43
2022-08-14T09:19:02.010Z,26.49
2022-08-14T09:21:35.272Z,26.55
2022-08-14T09:24:28.974Z,26.60
2022-08-14T09:27:00.913Z,26.66
2022-08-14T09:29:32.888Z,26.73
2022-08-14T09:32:26.914Z,26.79
2022-08-14T09:35:18.236Z,26.88
2022-08-14T09:38:01.770Z,26.99
2022-08-14T09:40:43.821Z,27.10
2022-08-14T09:43:32.035Z,27.22
2022-08-14T09:46:09.549Z,27.30
2022-08-14T09:48:43.168Z,27.35
2022-08-14T09:51:32.954Z,27.40
2022-08-14T09:54:22.959Z,27.38
2022-08-14T09:56:56.897Z,27.39
2022-08-14T09:59:33.450Z,27.41
2022-08-14T10:02:07.351Z,27.46
2022-08-14T10:04:46.275Z,27.53
2022-08-14T10:07:32.694Z,27.60
2022-08-14T10:10:23.662Z,27.64
2022-08-14T10:12:58.849Z,27.66
2022-08-14T10:15:33.040Z,27.68
2022-08-14T10:18:17.815Z,27.67
2022-08-14T10:20:58.553Z,27.64
2022-08-14T10:23:43.476Z,27.65
2022-08-14T10:26:22.744Z,27.63
2022-08-14T10:29:19.569Z,27.65
2022-08-14T10:32:00.822Z,27.77
2022-08-14T10:34:38.934Z,27.88
2022-08-14T10:37:16.976Z,27.98
2022-08-14T10:40:10.691Z,28.05
2022-08-14T10:42:53.947Z,28.11
2022-08-14T10:45:33.832Z,28.17
2022-08-14T10:48:24.351Z,28.25
2022-08-14T10:51:09.848Z,28.31
2022-08-14T10:53:41.685Z,28.34
2022-08-14T10:56:21.550Z,28.41
2022-08-14T10:59:08.807Z,28.48
2022-08-14T11:01:45.167Z,28.50
2022-08-14T11:04:30.748Z,28.54
2022-08-14T11:07:02.972Z,28.61
2022-08-14T11:09:41.769Z,28.64
2022-08-14T11:12:36.022Z,28.68
2022-08-14T11:15:10.789Z,28.76
2022-08-14T11:17:45.969Z,28.80
2022-08-14T11:20:24.016Z,28.81
2022-08-14T11:22:58.857Z,28.85
2022-08-14T11:25:43.521Z,28.90
2022-08-14T11:28:18.877Z,28.97
2022-08-14T11:30:54.129Z,29.05
2022-08-14T11:33:31.211Z,29.12
2022-08-14T11:36:18.412Z,29.14
2022-08-14T11:38:53.777Z,29.12
2022-08-14T11:41:27.482Z,29.08
2022-08-14T11:43:59.878Z,29.07
2022-08-14T11:46:37.983Z,29.04
2022-08-14T11:49:17.209Z,29.02
2022-08-14T11:51:56.685Z,28.98
2022-08-14T11:54:34.885Z,28.99
2022-08-14T11:57:15.007Z,28.98
2022-08-14T12:00:01.077Z,29.02
2022-08-14T12:03:02.622Z,29.08
2022-08-14T12:05:38.927Z,29.13
2022-08-14T12:08:13.548Z,29.18
2022-08-14T12:10:46.650Z,29.27
2022-08-14T12:13:22.349Z,29.35
2022-08-14T12:16:06.271Z,29.40
2022-08-14T12:18:49.858Z,29.43
2022-08-14T12:21:23.891Z,29.49
2022-08-14T12:24:36.110Z,29.55
2022-08-14T12:27:02.701Z,29.55
2022-08-14T12:29:35.073Z,29.50
2022-08-14T12:32:08.956Z,29.44
2022-08-14T12:34:45.233Z,29.38
2022-08-14T12:37:17.513Z,29.35
2022-08-14T12:39:49.865Z,29.34
2022-08-14T12:42:26.933Z,29.27
2022-08-14T12:45:11.089Z,29.20
2022-08-14T12:47:51.552Z,29.18
2022-08-14T12:50:35.530Z,29.14
2022-08-14T12:53:14.865Z,29.10
2022-08-14T12:56:21.932Z,29.05
2022-08-14T12:58:59.154Z,28.98
2022-08-14T13:01:59.300Z,28.93
2022-08-14T13:04:25.054Z,28.89
2022-08-14T13:06:57.094Z,28.86
2022-08-14T13:09:36.350Z,28.79
2022-08-14T13:12:33.268Z,28.70
2022-08-14T13:15:10.864Z,28.48
2022-08-14T13:17:48.254Z,28.03
2022-08-14T13:20:26.757Z,27.58
2022-08-14T13:23:03.405Z,27.30
2022-08-14T13:25:40.895Z,27.01
2022-08-14T13:28:33.662Z,26.86
2022-08-14T13:31:11.507Z,26.70
2022-08-14T13:33:43.826Z,26.55
2022-08-14T13:36:24.333Z,26.42
2022-08-14T13:39:18.449Z,26.30
2022-08-14T13:41:56.149Z,26.19
2022-08-14T13:44:32.915Z,26.11
2022-08-14T13:47:09.447Z,26.07
2022-08-14T13:49:57.966Z,26.01
2022-08-14T13:52:59.497Z,26.01
2022-08-14T13:55:31.448Z,26.03
2022-08-14T13:58:30.018Z,26.03
2022-08-14T14:01:14.411Z,26.04
2022-08-14T14:03:51.556Z,26.07
2022-08-14T14:06:28.400Z,26.12
2022-08-14T14:09:01.097Z,26.15
2022-08-14T14:11:33.801Z,26.17
2022-08-14T14:14:06.702Z,26.19
2022-08-14T14:16:59.977Z,26.25
2022-08-14T14:19:35.133Z,26.31
2022-08-14T14:23:00.779Z,26.36
2022-08-14T14:25:19.496Z,26.41
2022-08-14T14:27:59.643Z,26.45
2022-08-14T14:30:52.342Z,26.49
2022-08-14T14:36:28.971Z,26.64
2022-08-14T14:39:04.630Z,26.69
2022-08-14T14:41:43.882Z,26.74
2022-08-14T14:44:16.729Z,26.81
2022-08-14T14:46:53.269Z,26.88
2022-08-14T14:49:42.031Z,26.96
2022-08-14T14:52:40.829Z,27.04
2022-08-14T14:55:17.031Z,27.08
2022-08-14T14:57:52.030Z,27.19
2022-08-14T15:00:30.962Z,27.28
2022-08-14T15:03:03.722Z,27.33
2022-08-14T15:05:36.450Z,27.40
2022-08-14T15:08:09.304Z,27.46
2022-08-14T15:10:49.439Z,27.54
2022-08-14T15:13:25.196Z,27.60
2022-08-14T15:15:58.538Z,27.68
2022-08-14T15:18:36.700Z,27.77
2022-08-14T15:21:10.541Z,27.84
2022-08-14T15:23:44.652Z,27.88
2022-08-14T15:26:23.813Z,27.95
2022-08-14T15:29:06.552Z,27.98
2022-08-14T15:31:39.816Z,27.94
2022-08-14T15:34:43.693Z,27.76
2022-08-14T15:37:16.767Z,27.48
2022-08-14T15:39:49.633Z,27.16
2022-08-14T15:42:27.725Z,26.70
2022-08-14T15:45:01.003Z,26.20
2022-08-14T15:47:35.973Z,25.85
2022-08-14T15:50:13.931Z,25.45
2022-08-14T15:52:53.406Z,25.17
2022-08-14T15:55:32.404Z,24.90
2022-08-14T15:58:04.892Z,24.66
2022-08-14T16:01:08.313Z,24.44
2022-08-14T16:03:44.936Z,24.20
2022-08-14T16:06:20.314Z,24.04
2022-08-14T16:09:01.006Z,23.92
2022-08-14T16:11:43.310Z,23.77
2022-08-14T16:14:57.455Z,23.59
2022-08-14T16:17:31.046Z,23.47
2022-08-14T16:20:05.280Z,23.34
2022-08-14T16:23:00.222Z,23.19
2022-08-14T16:25:34.505Z,22.97
2022-08-14T16:28:09.134Z,22.63
2022-08-14T16:30:42.528Z,22.33
2022-08-14T16:33:56.667Z,21.84
2022-08-14T16:36:30.052Z,21.27
2022-08-14T16:39:07.305Z,21.02
2022-08-14T16:41:40.492Z,20.85
2022-08-14T16:44:23.173Z,20.73
2022-08-14T16:47:12.960Z,20.66
2022-08-14T16:50:02.720Z,20.65
2022-08-14T16:52:54.819Z,20.64
2022-08-14T16:55:34.186Z,20.65
2022-08-14T16:58:30.257Z,20.66
2022-08-14T17:01:24.563Z,20.68
2022-08-14T17:04:25.038Z,20.71
2022-08-14T17:07:00.841Z,20.72
2022-08-14T17:13:47.306Z,20.76
2022-08-14T17:16:25.095Z,20.78
2022-08-14T17:32:56.052Z,21.21
2022-08-14T17:35:38.941Z,21.24
2022-08-14T17:38:38.813Z,21.23
2022-08-14T17:41:21.913Z,21.19
2022-08-14T17:43:55.085Z,21.12
2022-08-14T17:46:43.504Z,21.08
2022-08-14T17:49:18.132Z,21.04
2022-08-14T17:52:03.052Z,21.00
2022-08-14T17:54:39.387Z,20.95
2022-08-14T17:57:17.160Z,20.93
2022-08-14T17:59:48.402Z,20.91
2022-08-14T18:02:19.283Z,20.89
2022-08-14T18:04:50.598Z,20.88
2022-08-14T18:07:59.507Z,20.86
2022-08-14T18:10:52.939Z,20.85
2022-08-14T18:13:02.453Z,20.82
2022-08-14T18:15:37.321Z,20.79
2022-08-14T18:18:13.337Z,20.74
2022-08-14T18:21:23.819Z,20.69
2022-08-14T18:23:42.051Z,20.65
2022-08-14T18:26:36.181Z,20.62
2022-08-14T18:29:15.021Z,20.59
2022-08-14T18:31:45.415Z,20.58
2022-08-14T18:34:31.946Z,20.56
2022-08-14T18:37:14.325Z,20.53
2022-08-14T18:40:02.083Z,20.47
2022-08-14T18:42:47.165Z,20.48
2022-08-14T18:45:57.413Z,20.44
2022-08-14T18:49:07.502Z,20.37
2022-08-14T18:51:47.574Z,20.37
2022-08-14T18:54:32.828Z,20.27
2022-08-14T18:57:03.316Z,20.31
2022-08-14T18:59:39.099Z,20.27
2022-08-14T19:02:43.152Z,20.29
2022-08-14T19:05:12.812Z,20.30
2022-08-14T19:07:43.423Z,20.30
2022-08-14T19:10:31.940Z,20.30
2022-08-14T19:13:11.643Z,20.28
2022-08-14T19:15:43.258Z,20.30
2022-08-14T19:18:26.362Z,20.29
2022-08-14T19:20:59.059Z,20.29
2022-08-14T19:23:43.851Z,20.29
2022-08-14T19:26:35.495Z,20.29
2022-08-14T19:29:25.296Z,20.28
2022-08-14T19:31:59.107Z,20.27
2022-08-14T19:34:40.404Z,20.27
2022-08-14T19:37:47.204Z,20.26
2022-08-14T19:40:31.162Z,20.23
2022-08-14T19:43:01.843Z,20.20
2022-08-14T19:45:33.736Z,20.19
2022-08-14T19:48:03.078Z,20.17
2022-08-14T19:50:38.699Z,20.15
2022-08-14T19:53:16.695Z,20.14
2022-08-14T19:55:59.068Z,20.13
2022-08-14T19:58:54.413Z,20.11
2022-08-14T20:01:37.670Z,20.08
2022-08-14T20:04:45.073Z,20.05
2022-08-14T20:07:09.098Z,20.03
2022-08-14T20:11:03.252Z,20.00
2022-08-14T20:12:36.537Z,19.97
2022-08-14T20:15:27.552Z,19.95
2022-08-14T20:18:49.625Z,19.93
2022-08-14T20:21:12.403Z,19.88
2022-08-14T20:23:41.163Z,19.89
2022-08-14T20:26:30.893Z,19.87
2022-08-14T20:29:05.266Z,19.85
2022-08-14T20:31:38.291Z,19.81
2022-08-14T20:34:19.294Z,19.79
2022-08-14T20:37:04.464Z,19.78
2022-08-14T20:39:43.679Z,19.77
2022-08-14T20:42:37.507Z,19.75
2022-08-14T20:45:20.075Z,19.72
2022-08-14T20:47:55.332Z,19.71
2022-08-14T20:50:28.925Z,19.68
2022-08-14T20:52:59.435Z,19.66
2022-08-14T20:55:41.575Z,19.64
2022-08-14T20:58:38.572Z,19.64
2022-08-14T21:01:33.297Z,19.64
2022-08-14T21:04:20.491Z,19.61
2022-08-14T21:07:36.203Z,19.61
2022-08-14T21:10:06.645Z,19.61
2022-08-14T21:12:36.217Z,19.59
2022-08-14T21:15:11.036Z,19.58
2022-08-14T21:17:47.245Z,19.59
2022-08-14T21:20:26.363Z,19.59
2022-08-14T21:23:00.310Z,19.57
2022-08-14T21:25:31.819Z,19.57
2022-08-14T21:29:34.435Z,19.56
2022-08-14T21:32:03.342Z,19.55
2022-08-14T21:35:25.489Z,19.52
2022-08-14T21:37:54.980Z,19.52
2022-08-14T21:40:41.482Z,19.51
2022-08-14T21:43:43.638Z,19.52
2022-08-14T21:46:12.079Z,19.52
2022-08-14T21:49:12.483Z,19.50
2022-08-14T21:51:53.783Z,19.49
2022-08-14T21:54:30.380Z,19.49
2022-08-14T21:57:02.326Z,19.48
2022-08-14T21:59:32.708Z,19.47
2022-08-14T22:02:04.802Z,19.46
2022-08-14T22:04:40.189Z,19.42
2022-08-14T22:07:36.179Z,19.45
2022-08-14T22:10:10.462Z,19.45
2022-08-14T22:12:58.160Z,19.43
2022-08-14T22:15:30.587Z,19.42
2022-08-14T22:18:02.832Z,19.42
2022-08-14T22:20:59.955Z,19.43
2022-08-14T22:23:47.042Z,19.44
2022-08-14T22:28:00.796Z,19.44
2022-08-14T22:30:54.731Z,19.47
2022-08-14T22:33:31.680Z,19.48
2022-08-14T22:36:24.875Z,19.50
2022-08-14T22:38:54.989Z,19.52
2022-08-14T22:41:27.862Z,19.50
2022-08-14T22:44:14.660Z,19.54
2022-08-14T22:46:58.776Z,19.51
2022-08-14T22:50:28.769Z,19.55
2022-08-14T22:52:31.690Z,19.55
2022-08-14T22:59:02.118Z,19.55
2022-08-14T23:43:04.674Z,20.37
2022-08-14T23:45:39.676Z,20.30
2022-08-14T23:48:14.506Z,20.22
2022-08-14T23:50:53.148Z,20.14
2022-08-14T23:53:48.220Z,20.06
2022-08-14T23:56:30.294Z,19.98
2022-08-14T23:59:07.016Z,19.92
